sensor_id;sensor_type;location;lat;lon;timestamp;pressure;altitude;pressure_sealevel;temperature;humidity
55066;BME280;40964;42.114;24.220;2022-11-15T00:00:04;98522.53;;;6.37;100.00
55066;BME280;40964;42.114;24.220;2022-11-15T00:02:30;98524.00;;;6.39;100.00
55066;BME280;40964;42.114;24.220;2022-11-15T00:04:55;98514.59;;;6.30;100.00
55066;BME280;40964;42.114;24.220;2022-11-15T00:07:20;98526.44;;;6.41;100.00
55066;BME280;40964;42.114;24.220;2022-11-15T00:09:46;98517.09;;;6.46;100.00
55066;BME280;40964;42.114;24.220;2022-11-15T00:12:11;98522.16;;;6.48;100.00
55066;BME280;40964;42.114;24.220;2022-11-15T00:14:37;98514.16;;;6.49;100.00
55066;BME280;40964;42.114;24.220;2022-11-15T00:17:02;98520.38;;;6.48;100.00
55066;BME280;40964;42.114;24.220;2022-11-15T00:19:28;98513.84;;;6.44;100.00
55066;BME280;40964;42.114;24.220;2022-11-15T00:21:53;98515.63;;;6.44;100.00
55066;BME280;40964;42.114;24.220;2022-11-15T00:24:19;98526.09;;;6.44;100.00
55066;BME280;40964;42.114;24.220;2022-11-15T00:26:44;98514.31;;;6.48;100.00
55066;BME280;40964;42.114;24.220;2022-11-15T00:29:10;98514.59;;;6.53;100.00
55066;BME280;40964;42.114;24.220;2022-11-15T00:31:35;98518.03;;;6.53;100.00
55066;BME280;40964;42.114;24.220;2022-11-15T00:34:01;98509.69;;;6.58;100.00
55066;BME280;40964;42.114;24.220;2022-11-15T00:36:26;98503.41;;;6.67;99.63
55066;BME280;40964;42.114;24.220;2022-11-15T00:38:52;98512.19;;;6.74;99.33
55066;BME280;40964;42.114;24.220;2022-11-15T00:41:17;98509.03;;;6.79;98.88
55066;BME280;40964;42.114;24.220;2022-11-15T00:43:43;98503.47;;;6.82;98.45
55066;BME280;40964;42.114;24.220;2022-11-15T00:46:09;98502.31;;;6.85;98.32
55066;BME280;40964;42.114;24.220;2022-11-15T00:48:35;98490.13;;;6.77;98.96
55066;BME280;40964;42.114;24.220;2022-11-15T00:51:01;98493.81;;;6.82;99.57
55066;BME280;40964;42.114;24.220;2022-11-15T00:53:26;98490.00;;;6.93;99.37
55066;BME280;40964;42.114;24.220;2022-11-15T00:55:52;98490.44;;;6.97;99.04
55066;BME280;40964;42.114;24.220;2022-11-15T00:58:18;98492.06;;;6.98;98.83
55066;BME280;40964;42.114;24.220;2022-11-15T01:00:44;98490.09;;;7.00;98.88
55066;BME280;40964;42.114;24.220;2022-11-15T01:03:09;98492.00;;;7.06;99.35
55066;BME280;40964;42.114;24.220;2022-11-15T01:05:37;98488.22;;;7.08;99.58
55066;BME280;40964;42.114;24.220;2022-11-15T01:08:03;98478.03;;;7.14;99.34
55066;BME280;40964;42.114;24.220;2022-11-15T01:10:29;98474.81;;;7.11;99.57
55066;BME280;40964;42.114;24.220;2022-11-15T01:12:54;98472.94;;;7.20;99.53
55066;BME280;40964;42.114;24.220;2022-11-15T01:15:20;98476.06;;;7.16;99.86
55066;BME280;40964;42.114;24.220;2022-11-15T01:17:45;98474.72;;;7.20;99.88
55066;BME280;40964;42.114;24.220;2022-11-15T01:20:11;98480.28;;;7.17;99.88
55066;BME280;40964;42.114;24.220;2022-11-15T01:22:37;98478.47;;;7.02;100.00
55066;BME280;40964;42.114;24.220;2022-11-15T01:25:03;98481.25;;;7.01;100.00
55066;BME280;40964;42.114;24.220;2022-11-15T01:27:28;98483.22;;;6.99;100.00
55066;BME280;40964;42.114;24.220;2022-11-15T01:29:53;98480.91;;;7.04;100.00
55066;BME280;40964;42.114;24.220;2022-11-15T01:32:19;98474.50;;;7.06;100.00
55066;BME280;40964;42.114;24.220;2022-11-15T01:34:45;98474.06;;;7.03;100.00
55066;BME280;40964;42.114;24.220;2022-11-15T01:37:10;98484.97;;;7.06;100.00
55066;BME280;40964;42.114;24.220;2022-11-15T01:39:35;98456.34;;;6.90;100.00
55066;BME280;40964;42.114;24.220;2022-11-15T01:42:04;98476.88;;;6.78;100.00
55066;BME280;40964;42.114;24.220;2022-11-15T01:47:11;98469.78;;;6.87;100.00
55066;BME280;40964;42.114;24.220;2022-11-15T01:49:45;98465.81;;;6.91;100.00
55066;BME280;40964;42.114;24.220;2022-11-15T01:52:17;98472.50;;;6.71;100.00
55066;BME280;40964;42.114;24.220;2022-11-15T01:54:44;98452.19;;;6.58;100.00
55066;BME280;40964;42.114;24.220;2022-11-15T01:57:11;98480.00;;;6.74;100.00
55066;BME280;40964;42.114;24.220;2022-11-15T01:59:40;98467.91;;;6.73;100.00
55066;BME280;40964;42.114;24.220;2022-11-15T02:02:07;98469.09;;;6.70;100.00
55066;BME280;40964;42.114;24.220;2022-11-15T02:04:37;98478.84;;;6.76;100.00
55066;BME280;40964;42.114;24.220;2022-11-15T02:07:04;98471.22;;;6.90;100.00
55066;BME280;40964;42.114;24.220;2022-11-15T02:09:30;98478.19;;;6.97;100.00
55066;BME280;40964;42.114;24.220;2022-11-15T02:11:56;98469.97;;;7.00;100.00
55066;BME280;40964;42.114;24.220;2022-11-15T02:14:23;98471.72;;;7.08;100.00
55066;BME280;40964;42.114;24.220;2022-11-15T02:30:36;98469.59;;;7.41;100.00
55066;BME280;40964;42.114;24.220;2022-11-15T02:36:40;98461.03;;;7.47;100.00
55066;BME280;40964;42.114;24.220;2022-11-15T02:38:57;98433.69;;;7.35;100.00
55066;BME280;40964;42.114;24.220;2022-11-15T02:41:30;98464.81;;;7.59;100.00
55066;BME280;40964;42.114;24.220;2022-11-15T02:44:04;98458.22;;;7.63;100.00
55066;BME280;40964;42.114;24.220;2022-11-15T02:47:20;98455.88;;;7.68;100.00
55066;BME280;40964;42.114;24.220;2022-11-15T02:49:47;98458.69;;;7.67;100.00
55066;BME280;40964;42.114;24.220;2022-11-15T02:52:18;98458.88;;;7.65;100.00
55066;BME280;40964;42.114;24.220;2022-11-15T02:54:59;98463.47;;;7.49;100.00
55066;BME280;40964;42.114;24.220;2022-11-15T02:58:00;98457.16;;;7.58;100.00
55066;BME280;40964;42.114;24.220;2022-11-15T03:00:20;98456.59;;;7.62;100.00
55066;BME280;40964;42.114;24.220;2022-11-15T03:08:22;98453.91;;;7.71;100.00
55066;BME280;40964;42.114;24.220;2022-11-15T03:11:03;98463.38;;;7.57;100.00
55066;BME280;40964;42.114;24.220;2022-11-15T03:13:57;98455.78;;;7.62;100.00
55066;BME280;40964;42.114;24.220;2022-11-15T03:21:44;98458.50;;;7.54;100.00
55066;BME280;40964;42.114;24.220;2022-11-15T03:24:12;98452.91;;;7.57;100.00
55066;BME280;40964;42.114;24.220;2022-11-15T03:26:40;98463.81;;;7.46;100.00
55066;BME280;40964;42.114;24.220;2022-11-15T03:29:13;98458.31;;;7.26;99.66
55066;BME280;40964;42.114;24.220;2022-11-15T03:31:44;98451.16;;;7.05;98.25
55066;BME280;40964;42.114;24.220;2022-11-15T03:34:29;98458.78;;;6.92;98.37
55066;BME280;40964;42.114;24.220;2022-11-15T03:36:57;98450.59;;;6.95;97.99
55066;BME280;40964;42.114;24.220;2022-11-15T03:39:23;98445.91;;;7.05;97.61
55066;BME280;40964;42.114;24.220;2022-11-15T03:44:52;98437.75;;;7.23;98.28
55066;BME280;40964;42.114;24.220;2022-11-15T03:47:36;98437.75;;;7.23;98.50
55066;BME280;40964;42.114;24.220;2022-11-15T03:50:17;98432.94;;;7.26;98.70
55066;BME280;40964;42.114;24.220;2022-11-15T03:52:45;98418.81;;;7.21;98.95
55066;BME280;40964;42.114;24.220;2022-11-15T03:55:15;98429.34;;;7.27;99.00
55066;BME280;40964;42.114;24.220;2022-11-15T03:57:41;98427.78;;;7.18;99.82
55066;BME280;40964;42.114;24.220;2022-11-15T04:00:07;98426.72;;;7.13;99.86
55066;BME280;40964;42.114;24.220;2022-11-15T04:02:32;98435.19;;;7.15;100.00
55066;BME280;40964;42.114;24.220;2022-11-15T04:04:58;98419.00;;;7.19;100.00
55066;BME280;40964;42.114;24.220;2022-11-15T04:07:23;98421.78;;;7.32;99.81
55066;BME280;40964;42.114;24.220;2022-11-15T04:09:49;98412.50;;;7.30;100.00
55066;BME280;40964;42.114;24.220;2022-11-15T04:12:35;98417.44;;;7.25;100.00
55066;BME280;40964;42.114;24.220;2022-11-15T04:15:05;98422.41;;;7.34;100.00
55066;BME280;40964;42.114;24.220;2022-11-15T04:20:00;98415.53;;;7.19;100.00
55066;BME280;40964;42.114;24.220;2022-11-15T04:22:44;98413.63;;;7.27;99.13
55066;BME280;40964;42.114;24.220;2022-11-15T04:25:28;98406.25;;;7.31;98.65
55066;BME280;40964;42.114;24.220;2022-11-15T04:27:54;98405.63;;;7.44;98.07
55066;BME280;40964;42.114;24.220;2022-11-15T04:30:19;98414.75;;;7.48;97.51
55066;BME280;40964;42.114;24.220;2022-11-15T04:32:45;98398.66;;;7.51;97.54
55066;BME280;40964;42.114;24.220;2022-11-15T04:35:10;98408.44;;;7.57;98.21
55066;BME280;40964;42.114;24.220;2022-11-15T04:37:36;98405.25;;;7.61;98.33
55066;BME280;40964;42.114;24.220;2022-11-15T04:40:01;98396.25;;;7.64;98.72
55066;BME280;40964;42.114;24.220;2022-11-15T04:42:27;98401.72;;;7.69;98.78
55066;BME280;40964;42.114;24.220;2022-11-15T04:44:52;98380.78;;;7.69;98.47
55066;BME280;40964;42.114;24.220;2022-11-15T04:47:17;98392.53;;;7.73;98.25
55066;BME280;40964;42.114;24.220;2022-11-15T04:49:44;98378.44;;;7.74;98.62
55066;BME280;40964;42.114;24.220;2022-11-15T04:52:09;98385.53;;;7.80;98.46
55066;BME280;40964;42.114;24.220;2022-11-15T04:54:34;98389.78;;;7.81;98.61
55066;BME280;40964;42.114;24.220;2022-11-15T04:57:00;98385.00;;;7.85;98.79
55066;BME280;40964;42.114;24.220;2022-11-15T04:59:25;98384.28;;;7.91;99.11
55066;BME280;40964;42.114;24.220;2022-11-15T05:01:51;98379.13;;;7.83;99.09
55066;BME280;40964;42.114;24.220;2022-11-15T05:04:16;98388.44;;;7.85;99.35
55066;BME280;40964;42.114;24.220;2022-11-15T05:06:48;98380.28;;;7.80;99.21
55066;BME280;40964;42.114;24.220;2022-11-15T05:09:14;98393.75;;;7.92;99.76
55066;BME280;40964;42.114;24.220;2022-11-15T05:11:40;98387.50;;;7.93;99.33
55066;BME280;40964;42.114;24.220;2022-11-15T05:14:05;98397.59;;;7.96;99.40
55066;BME280;40964;42.114;24.220;2022-11-15T05:16:31;98392.38;;;7.96;99.78
55066;BME280;40964;42.114;24.220;2022-11-15T05:18:56;98398.88;;;8.00;99.12
55066;BME280;40964;42.114;24.220;2022-11-15T05:21:22;98386.41;;;8.02;99.10
55066;BME280;40964;42.114;24.220;2022-11-15T05:23:47;98381.09;;;7.95;98.74
55066;BME280;40964;42.114;24.220;2022-11-15T05:26:15;98388.81;;;8.04;98.40
55066;BME280;40964;42.114;24.220;2022-11-15T05:28:40;98390.06;;;8.08;97.91
55066;BME280;40964;42.114;24.220;2022-11-15T05:31:24;98389.91;;;8.09;98.03
55066;BME280;40964;42.114;24.220;2022-11-15T05:33:50;98391.88;;;8.07;98.11
55066;BME280;40964;42.114;24.220;2022-11-15T05:38:45;98403.00;;;8.09;98.10
55066;BME280;40964;42.114;24.220;2022-11-15T05:41:12;98405.06;;;8.14;98.33
55066;BME280;40964;42.114;24.220;2022-11-15T05:43:39;98402.06;;;8.17;98.19
55066;BME280;40964;42.114;24.220;2022-11-15T05:46:06;98406.56;;;8.23;97.80
55066;BME280;40964;42.114;24.220;2022-11-15T05:48:34;98406.06;;;8.13;98.16
55066;BME280;40964;42.114;24.220;2022-11-15T05:51:01;98413.13;;;7.97;99.41
55066;BME280;40964;42.114;24.220;2022-11-15T05:53:28;98411.06;;;7.93;99.13
55066;BME280;40964;42.114;24.220;2022-11-15T05:55:53;98409.63;;;7.90;98.52
55066;BME280;40964;42.114;24.220;2022-11-15T05:58:20;98408.50;;;8.00;98.39
55066;BME280;40964;42.114;24.220;2022-11-15T06:00:45;98405.34;;;8.04;98.66
55066;BME280;40964;42.114;24.220;2022-11-15T06:03:11;98414.22;;;8.03;98.19
55066;BME280;40964;42.114;24.220;2022-11-15T06:05:39;98410.50;;;7.97;97.90
55066;BME280;40964;42.114;24.220;2022-11-15T06:08:05;98411.25;;;7.91;98.60
55066;BME280;40964;42.114;24.220;2022-11-15T06:10:31;98410.78;;;8.03;98.35
55066;BME280;40964;42.114;24.220;2022-11-15T06:13:01;98403.44;;;8.13;97.99
55066;BME280;40964;42.114;24.220;2022-11-15T06:15:27;98407.25;;;8.10;97.82
55066;BME280;40964;42.114;24.220;2022-11-15T06:17:56;98407.94;;;8.19;97.35
55066;BME280;40964;42.114;24.220;2022-11-15T06:20:24;98409.69;;;8.33;96.71
55066;BME280;40964;42.114;24.220;2022-11-15T06:22:49;98409.16;;;8.38;97.09
55066;BME280;40964;42.114;24.220;2022-11-15T06:25:15;98413.47;;;8.45;96.79
55066;BME280;40964;42.114;24.220;2022-11-15T06:27:40;98385.59;;;8.23;96.87
55066;BME280;40964;42.114;24.220;2022-11-15T06:30:06;98393.84;;;8.20;97.91
55066;BME280;40964;42.114;24.220;2022-11-15T06:32:31;98408.06;;;8.32;97.89
55066;BME280;40964;42.114;24.220;2022-11-15T06:34:57;98407.25;;;8.32;97.58
55066;BME280;40964;42.114;24.220;2022-11-15T06:37:22;98405.09;;;8.35;96.81
55066;BME280;40964;42.114;24.220;2022-11-15T06:39:48;98404.38;;;8.26;96.55
55066;BME280;40964;42.114;24.220;2022-11-15T06:42:13;98409.09;;;8.16;98.62
55066;BME280;40964;42.114;24.220;2022-11-15T06:44:39;98409.38;;;8.21;98.35
55066;BME280;40964;42.114;24.220;2022-11-15T06:47:04;98402.31;;;8.37;97.23
55066;BME280;40964;42.114;24.220;2022-11-15T06:49:30;98410.78;;;8.24;98.30
55066;BME280;40964;42.114;24.220;2022-11-15T06:51:55;98415.16;;;8.17;100.00
55066;BME280;40964;42.114;24.220;2022-11-15T06:54:21;98412.72;;;8.15;100.00
55066;BME280;40964;42.114;24.220;2022-11-15T06:56:47;98406.25;;;8.11;100.00
55066;BME280;40964;42.114;24.220;2022-11-15T06:59:13;98408.47;;;7.93;100.00
55066;BME280;40964;42.114;24.220;2022-11-15T07:01:38;98402.75;;;7.89;100.00
55066;BME280;40964;42.114;24.220;2022-11-15T07:04:04;98386.59;;;8.01;100.00
55066;BME280;40964;42.114;24.220;2022-11-15T07:06:29;98403.63;;;8.11;100.00
55066;BME280;40964;42.114;24.220;2022-11-15T07:08:55;98402.00;;;8.10;100.00
55066;BME280;40964;42.114;24.220;2022-11-15T07:11:20;98400.06;;;8.19;100.00
55066;BME280;40964;42.114;24.220;2022-11-15T07:13:46;98398.88;;;8.36;99.61
55066;BME280;40964;42.114;24.220;2022-11-15T07:16:11;98397.50;;;8.40;98.29
55066;BME280;40964;42.114;24.220;2022-11-15T07:18:39;98398.59;;;8.52;97.58
55066;BME280;40964;42.114;24.220;2022-11-15T07:21:06;98397.66;;;8.60;96.16
55066;BME280;40964;42.114;24.220;2022-11-15T07:23:32;98398.44;;;8.54;96.44
55066;BME280;40964;42.114;24.220;2022-11-15T07:25:58;98392.75;;;8.50;96.31
55066;BME280;40964;42.114;24.220;2022-11-15T07:28:25;98391.69;;;8.45;97.38
55066;BME280;40964;42.114;24.220;2022-11-15T07:30:51;98398.72;;;8.44;97.39
55066;BME280;40964;42.114;24.220;2022-11-15T07:33:16;98397.38;;;8.48;97.08
55066;BME280;40964;42.114;24.220;2022-11-15T07:35:42;98391.94;;;8.50;96.07
55066;BME280;40964;42.114;24.220;2022-11-15T07:38:08;98391.94;;;8.50;94.62
55066;BME280;40964;42.114;24.220;2022-11-15T07:40:33;98392.19;;;8.55;94.88
55066;BME280;40964;42.114;24.220;2022-11-15T07:43:05;98395.50;;;8.64;96.13
55066;BME280;40964;42.114;24.220;2022-11-15T07:45:31;98397.97;;;8.72;94.48
55066;BME280;40964;42.114;24.220;2022-11-15T07:47:58;98393.56;;;8.79;95.24
55066;BME280;40964;42.114;24.220;2022-11-15T07:50:24;98392.81;;;8.85;95.83
55066;BME280;40964;42.114;24.220;2022-11-15T07:52:57;98393.84;;;8.84;95.08
55066;BME280;40964;42.114;24.220;2022-11-15T07:55:25;98396.50;;;8.91;94.16
55066;BME280;40964;42.114;24.220;2022-11-15T07:57:52;98400.50;;;8.87;93.30
55066;BME280;40964;42.114;24.220;2022-11-15T08:00:18;98400.13;;;8.90;94.19
55066;BME280;40964;42.114;24.220;2022-11-15T08:02:44;98393.56;;;9.00;93.45
55066;BME280;40964;42.114;24.220;2022-11-15T08:05:09;98393.81;;;9.12;92.46
55066;BME280;40964;42.114;24.220;2022-11-15T08:07:35;98384.47;;;9.03;92.72
55066;BME280;40964;42.114;24.220;2022-11-15T08:10:00;98395.78;;;9.03;92.43
55066;BME280;40964;42.114;24.220;2022-11-15T08:12:31;98388.97;;;9.09;91.77
55066;BME280;40964;42.114;24.220;2022-11-15T08:14:56;98379.66;;;9.06;91.99
55066;BME280;40964;42.114;24.220;2022-11-15T08:17:25;98386.41;;;9.22;91.20
55066;BME280;40964;42.114;24.220;2022-11-15T08:19:51;98388.63;;;9.19;91.78
55066;BME280;40964;42.114;24.220;2022-11-15T08:22:17;98385.81;;;9.20;92.30
55066;BME280;40964;42.114;24.220;2022-11-15T08:24:43;98383.78;;;9.22;91.34
55066;BME280;40964;42.114;24.220;2022-11-15T08:27:09;98387.88;;;9.31;90.79
55066;BME280;40964;42.114;24.220;2022-11-15T08:29:43;98387.47;;;9.34;90.37
55066;BME280;40964;42.114;24.220;2022-11-15T08:32:10;98381.66;;;9.39;91.14
55066;BME280;40964;42.114;24.220;2022-11-15T08:34:37;98389.19;;;9.49;90.32
55066;BME280;40964;42.114;24.220;2022-11-15T08:37:04;98386.16;;;9.45;90.28
55066;BME280;40964;42.114;24.220;2022-11-15T08:39:29;98392.69;;;9.62;89.27
55066;BME280;40964;42.114;24.220;2022-11-15T08:41:55;98380.81;;;9.73;88.24
55066;BME280;40964;42.114;24.220;2022-11-15T08:44:20;98397.22;;;9.82;87.64
55066;BME280;40964;42.114;24.220;2022-11-15T08:46:46;98390.59;;;9.99;87.21
55066;BME280;40964;42.114;24.220;2022-11-15T08:49:12;98386.97;;;10.00;86.50
55066;BME280;40964;42.114;24.220;2022-11-15T08:51:37;98380.13;;;10.19;85.25
55066;BME280;40964;42.114;24.220;2022-11-15T08:54:03;98378.31;;;10.19;84.04
55066;BME280;40964;42.114;24.220;2022-11-15T08:56:29;98377.38;;;10.34;83.99
55066;BME280;40964;42.114;24.220;2022-11-15T08:58:54;98373.31;;;10.31;83.46
55066;BME280;40964;42.114;24.220;2022-11-15T09:01:21;98352.69;;;10.55;83.52
55066;BME280;40964;42.114;24.220;2022-11-15T09:03:47;98350.44;;;10.85;82.00
55066;BME280;40964;42.114;24.220;2022-11-15T09:06:13;98345.78;;;11.00;81.07
55066;BME280;40964;42.114;24.220;2022-11-15T09:08:38;98332.41;;;10.95;81.13
55066;BME280;40964;42.114;24.220;2022-11-15T09:11:05;98300.09;;;10.61;81.38
55066;BME280;40964;42.114;24.220;2022-11-15T09:13:31;98334.66;;;10.91;81.00
55066;BME280;40964;42.114;24.220;2022-11-15T09:15:58;98322.53;;;10.97;79.71
55066;BME280;40964;42.114;24.220;2022-11-15T09:18:24;98326.56;;;10.93;79.33
55066;BME280;40964;42.114;24.220;2022-11-15T09:20:50;98323.72;;;11.07;79.94
55066;BME280;40964;42.114;24.220;2022-11-15T09:23:16;98315.00;;;11.00;77.89
55066;BME280;40964;42.114;24.220;2022-11-15T09:25:41;98318.25;;;11.02;78.61
55066;BME280;40964;42.114;24.220;2022-11-15T09:28:08;98321.66;;;11.16;78.10
55066;BME280;40964;42.114;24.220;2022-11-15T09:30:33;98320.81;;;11.29;75.86
55066;BME280;40964;42.114;24.220;2022-11-15T09:33:06;98309.16;;;11.56;77.66
55066;BME280;40964;42.114;24.220;2022-11-15T09:35:32;98310.88;;;11.82;77.45
55066;BME280;40964;42.114;24.220;2022-11-15T09:37:57;98305.47;;;12.02;73.55
55066;BME280;40964;42.114;24.220;2022-11-15T09:40:23;98306.19;;;12.16;73.48
55066;BME280;40964;42.114;24.220;2022-11-15T09:43:25;98296.72;;;12.08;73.37
55066;BME280;40964;42.114;24.220;2022-11-15T09:48:59;98292.50;;;12.01;74.05
55066;BME280;40964;42.114;24.220;2022-11-15T09:51:39;98295.72;;;11.71;74.38
55066;BME280;40964;42.114;24.220;2022-11-15T09:54:41;98297.09;;;11.80;74.73
55066;BME280;40964;42.114;24.220;2022-11-15T09:57:22;98294.84;;;11.84;73.75
55066;BME280;40964;42.114;24.220;2022-11-15T09:59:58;98288.94;;;11.88;73.62
55066;BME280;40964;42.114;24.220;2022-11-15T10:05:24;98267.47;;;12.16;72.85
55066;BME280;40964;42.114;24.220;2022-11-15T10:07:55;98270.97;;;12.35;72.53
55066;BME280;40964;42.114;24.220;2022-11-15T10:13:04;98262.13;;;12.23;72.48
55066;BME280;40964;42.114;24.220;2022-11-15T10:15:30;98257.22;;;12.27;73.59
55066;BME280;40964;42.114;24.220;2022-11-15T10:18:09;98249.25;;;12.58;72.78
55066;BME280;40964;42.114;24.220;2022-11-15T10:21:00;98246.09;;;12.49;71.26
55066;BME280;40964;42.114;24.220;2022-11-15T10:23:28;98241.00;;;12.48;72.13
55066;BME280;40964;42.114;24.220;2022-11-15T10:25:57;98241.34;;;12.58;70.71
55066;BME280;40964;42.114;24.220;2022-11-15T10:28:30;98233.66;;;12.32;70.87
55066;BME280;40964;42.114;24.220;2022-11-15T10:31:00;98231.22;;;12.30;70.98
55066;BME280;40964;42.114;24.220;2022-11-15T10:33:33;98228.06;;;12.65;70.30
55066;BME280;40964;42.114;24.220;2022-11-15T10:43:44;98190.31;;;12.64;69.57
55066;BME280;40964;42.114;24.220;2022-11-15T10:46:23;98201.66;;;13.01;69.74
55066;BME280;40964;42.114;24.220;2022-11-15T10:48:49;98206.22;;;12.76;68.44
55066;BME280;40964;42.114;24.220;2022-11-15T10:51:25;98200.28;;;12.62;69.57
55066;BME280;40964;42.114;24.220;2022-11-15T10:53:56;98199.72;;;12.78;71.23
55066;BME280;40964;42.114;24.220;2022-11-15T10:56:24;98187.16;;;12.92;69.04
55066;BME280;40964;42.114;24.220;2022-11-15T10:58:56;98186.41;;;12.67;70.27
55066;BME280;40964;42.114;24.220;2022-11-15T11:01:24;98180.72;;;12.88;69.18
55066;BME280;40964;42.114;24.220;2022-11-15T11:04:03;98179.38;;;12.97;69.05
55066;BME280;40964;42.114;24.220;2022-11-15T11:06:29;98182.28;;;13.07;68.93
55066;BME280;40964;42.114;24.220;2022-11-15T11:08:56;98174.22;;;13.21;68.38
55066;BME280;40964;42.114;24.220;2022-11-15T11:11:22;98174.94;;;13.28;68.11
55066;BME280;40964;42.114;24.220;2022-11-15T11:13:48;98175.53;;;13.30;67.68
55066;BME280;40964;42.114;24.220;2022-11-15T11:21:10;98162.94;;;13.14;67.74
55066;BME280;40964;42.114;24.220;2022-11-15T11:23:56;98157.47;;;12.97;68.82
55066;BME280;40964;42.114;24.220;2022-11-15T11:26:40;98146.22;;;13.01;67.91
55066;BME280;40964;42.114;24.220;2022-11-15T11:29:26;98148.88;;;12.83;68.75
55066;BME280;40964;42.114;24.220;2022-11-15T11:35:14;98119.88;;;13.13;68.51
55066;BME280;40964;42.114;24.220;2022-11-15T11:43:00;98119.53;;;13.40;67.24
55066;BME280;40964;42.114;24.220;2022-11-15T11:48:24;98111.72;;;13.56;66.33
55066;BME280;40964;42.114;24.220;2022-11-15T11:51:03;98111.63;;;13.75;65.22
55066;BME280;40964;42.114;24.220;2022-11-15T11:53:52;98106.34;;;13.75;65.55
55066;BME280;40964;42.114;24.220;2022-11-15T11:56:31;98105.28;;;13.52;65.26
55066;BME280;40964;42.114;24.220;2022-11-15T11:59:07;98095.84;;;13.45;65.66
55066;BME280;40964;42.114;24.220;2022-11-15T12:01:43;98093.59;;;13.60;65.33
55066;BME280;40964;42.114;24.220;2022-11-15T12:04:36;98088.41;;;13.53;67.45
55066;BME280;40964;42.114;24.220;2022-11-15T12:07:17;98078.72;;;13.47;65.77
55066;BME280;40964;42.114;24.220;2022-11-15T12:15:44;98062.34;;;13.57;65.30
55066;BME280;40964;42.114;24.220;2022-11-15T12:18:15;98066.13;;;13.49;66.04
55066;BME280;40964;42.114;24.220;2022-11-15T12:20:53;98058.44;;;13.71;65.59
55066;BME280;40964;42.114;24.220;2022-11-15T12:23:25;98047.72;;;13.89;64.93
55066;BME280;40964;42.114;24.220;2022-11-15T12:26:07;98047.94;;;14.00;64.68
55066;BME280;40964;42.114;24.220;2022-11-15T12:29:03;98053.22;;;14.00;64.65
55066;BME280;40964;42.114;24.220;2022-11-15T12:34:03;98039.94;;;13.95;64.12
55066;BME280;40964;42.114;24.220;2022-11-15T12:36:50;98046.59;;;13.85;63.91
55066;BME280;40964;42.114;24.220;2022-11-15T12:39:17;98045.44;;;13.93;64.21
55066;BME280;40964;42.114;24.220;2022-11-15T12:41:44;98046.13;;;13.88;64.16
55066;BME280;40964;42.114;24.220;2022-11-15T13:02:26;98023.25;;;13.24;66.18
55066;BME280;40964;42.114;24.220;2022-11-15T13:05:24;98022.44;;;13.35;65.72
55066;BME280;40964;42.114;24.220;2022-11-15T13:17:45;98008.97;;;13.13;66.00
55066;BME280;40964;42.114;24.220;2022-11-15T13:30:40;98005.66;;;12.46;69.89
55066;BME280;40964;42.114;24.220;2022-11-15T13:33:19;98002.50;;;12.37;70.90
55066;BME280;40964;42.114;24.220;2022-11-15T13:35:48;97994.56;;;12.26;70.80
55066;BME280;40964;42.114;24.220;2022-11-15T13:38:26;97993.69;;;12.13;71.97
55066;BME280;40964;42.114;24.220;2022-11-15T13:40:52;98004.38;;;12.18;71.67
55066;BME280;40964;42.114;24.220;2022-11-15T13:46:13;97995.59;;;12.06;73.37
55066;BME280;40964;42.114;24.220;2022-11-15T13:48:43;97988.84;;;11.92;73.08
55066;BME280;40964;42.114;24.220;2022-11-15T13:51:34;98008.09;;;11.92;73.54
55066;BME280;40964;42.114;24.220;2022-11-15T13:56:40;98003.50;;;11.88;74.13
55066;BME280;40964;42.114;24.220;2022-11-15T13:59:17;98004.41;;;11.75;74.19
55066;BME280;40964;42.114;24.220;2022-11-15T14:01:45;98000.16;;;11.74;74.41
55066;BME280;40964;42.114;24.220;2022-11-15T14:04:13;97998.91;;;11.77;74.65
55066;BME280;40964;42.114;24.220;2022-11-15T14:06:49;97996.88;;;11.79;74.83
55066;BME280;40964;42.114;24.220;2022-11-15T14:09:29;97994.47;;;11.77;74.02
55066;BME280;40964;42.114;24.220;2022-11-15T14:11:58;97994.47;;;11.77;74.40
55066;BME280;40964;42.114;24.220;2022-11-15T14:14:26;97992.03;;;11.76;74.67
55066;BME280;40964;42.114;24.220;2022-11-15T14:16:54;97980.69;;;11.75;74.31
55066;BME280;40964;42.114;24.220;2022-11-15T14:22:14;97991.41;;;11.80;74.24
55066;BME280;40964;42.114;24.220;2022-11-15T14:24:40;97986.16;;;11.80;74.59
55066;BME280;40964;42.114;24.220;2022-11-15T14:27:39;97985.09;;;11.63;74.99
55066;BME280;40964;42.114;24.220;2022-11-15T14:30:05;97986.66;;;11.46;75.44
55066;BME280;40964;42.114;24.220;2022-11-15T14:32:57;97982.13;;;11.34;76.43
55066;BME280;40964;42.114;24.220;2022-11-15T14:35:23;97980.28;;;11.35;76.89
55066;BME280;40964;42.114;24.220;2022-11-15T14:37:49;97981.63;;;11.19;76.69
55066;BME280;40964;42.114;24.220;2022-11-15T14:40:20;97986.91;;;11.19;77.18
55066;BME280;40964;42.114;24.220;2022-11-15T14:42:47;97980.94;;;11.05;78.08
55066;BME280;40964;42.114;24.220;2022-11-15T14:45:18;97983.50;;;10.87;78.01
55066;BME280;40964;42.114;24.220;2022-11-15T14:47:44;97980.16;;;10.73;78.94
55066;BME280;40964;42.114;24.220;2022-11-15T14:50:18;97978.03;;;10.57;79.30
55066;BME280;40964;42.114;24.220;2022-11-15T14:52:44;97974.63;;;10.50;79.56
55066;BME280;40964;42.114;24.220;2022-11-15T14:57:40;97973.34;;;10.28;80.13
55066;BME280;40964;42.114;24.220;2022-11-15T15:00:06;97974.78;;;10.17;80.55
55066;BME280;40964;42.114;24.220;2022-11-15T15:02:31;97966.34;;;10.02;81.26
55066;BME280;40964;42.114;24.220;2022-11-15T15:04:57;97961.09;;;10.02;81.14
55066;BME280;40964;42.114;24.220;2022-11-15T15:07:26;97976.88;;;9.88;81.63
55066;BME280;40964;42.114;24.220;2022-11-15T15:09:51;97978.78;;;9.68;82.86
55066;BME280;40964;42.114;24.220;2022-11-15T15:12:19;97975.59;;;9.46;83.63
55066;BME280;40964;42.114;24.220;2022-11-15T15:14:47;97957.66;;;9.30;84.04